createdAt,value
2023-01-23T00:00:15.804Z,12.60
2023-01-23T00:02:43.740Z,12.93
2023-01-23T00:05:12.197Z,13.77
2023-01-23T00:07:41.398Z,13.32
2023-01-23T00:10:10.668Z,12.48
2023-01-23T00:12:38.520Z,12.30
2023-01-23T00:15:07.713Z,12.73
2023-01-23T00:17:35.520Z,13.52
2023-01-23T00:20:04.445Z,12.93
2023-01-23T00:22:32.313Z,14.23
2023-01-23T00:25:01.482Z,13.13
2023-01-23T00:27:29.531Z,12.50
2023-01-23T00:29:57.364Z,13.10
2023-01-23T00:32:25.197Z,12.88
2023-01-23T00:34:53.021Z,13.52
2023-01-23T00:37:20.882Z,12.68
2023-01-23T00:39:50.911Z,13.82
2023-01-23T00:42:20.102Z,13.65
2023-01-23T00:44:47.892Z,13.73
2023-01-23T00:47:15.792Z,13.45
2023-01-23T00:49:43.583Z,14.02
2023-01-23T00:52:11.387Z,14.25
2023-01-23T00:54:39.416Z,14.07
2023-01-23T00:57:07.287Z,14.40
2023-01-23T00:59:36.610Z,14.18
2023-01-23T01:02:04.852Z,14.18
2023-01-23T01:04:32.595Z,14.85
2023-01-23T01:07:00.597Z,15.05
2023-01-23T01:09:28.693Z,14.50
2023-01-23T01:11:56.600Z,13.80
2023-01-23T01:14:24.489Z,13.48
2023-01-23T01:16:53.771Z,13.95
2023-01-23T01:19:21.526Z,13.90
2023-01-23T01:21:49.377Z,15.57
2023-01-23T01:24:17.124Z,13.80
2023-01-23T01:26:44.903Z,13.32
2023-01-23T01:29:12.680Z,13.30
2023-01-23T01:31:40.989Z,14.35
2023-01-23T01:34:10.208Z,13.20
2023-01-23T01:36:37.994Z,13.82
2023-01-23T01:39:05.801Z,13.82
2023-01-23T01:41:33.576Z,14.25
2023-01-23T01:44:01.560Z,13.98
2023-01-23T01:46:29.975Z,15.05
2023-01-23T01:49:07.537Z,14.43
2023-01-23T01:51:39.896Z,14.68
2023-01-23T01:54:14.650Z,14.65
2023-01-23T01:56:48.993Z,15.27
2023-01-23T01:59:19.046Z,32.72
2023-01-23T02:01:51.811Z,17.33
2023-01-23T02:04:20.198Z,14.93
2023-01-23T02:06:51.886Z,14.23
2023-01-23T02:09:25.639Z,14.68
2023-01-23T02:11:54.212Z,15.73
2023-01-23T02:14:24.433Z,14.65
2023-01-23T02:16:52.920Z,16.20
2023-01-23T02:19:38.610Z,16.15
2023-01-23T02:22:19.243Z,15.68
2023-01-23T02:24:55.833Z,15.98
2023-01-23T02:27:25.025Z,15.18
2023-01-23T02:29:56.190Z,16.08
2023-01-23T02:32:25.619Z,14.40
2023-01-23T02:34:56.026Z,16.38
2023-01-23T02:37:30.137Z,15.73
2023-01-23T02:39:57.947Z,15.15
2023-01-23T02:42:27.499Z,15.93
2023-01-23T02:44:56.778Z,15.90
2023-01-23T02:47:25.400Z,15.43
2023-01-23T02:49:53.347Z,15.80
2023-01-23T02:52:21.146Z,15.95
2023-01-23T02:54:48.908Z,15.02
2023-01-23T02:57:16.768Z,15.60
2023-01-23T03:00:03.545Z,14.57
2023-01-23T03:02:31.706Z,14.63
2023-01-23T03:04:59.484Z,15.25
2023-01-23T03:07:27.257Z,14.80
2023-01-23T03:09:55.018Z,14.98
2023-01-23T03:12:22.802Z,14.98
2023-01-23T03:14:54.845Z,15.73
2023-01-23T03:17:22.867Z,15.02
2023-01-23T03:19:50.725Z,15.52
2023-01-23T03:22:18.697Z,16.08
2023-01-23T03:24:46.698Z,14.77
2023-01-23T03:27:14.529Z,15.70
2023-01-23T03:29:59.910Z,14.95
2023-01-23T03:32:29.433Z,14.73
2023-01-23T03:34:57.378Z,16.45
2023-01-23T03:37:25.140Z,15.45
2023-01-23T03:40:10.339Z,15.07
2023-01-23T03:42:38.197Z,16.92
2023-01-23T03:45:06.950Z,15.23
2023-01-23T03:47:36.263Z,15.82
2023-01-23T03:50:04.609Z,15.50
2023-01-23T03:52:32.776Z,15.63
2023-01-23T03:55:00.540Z,15.35
2023-01-23T03:57:28.466Z,15.90
2023-01-23T03:59:56.301Z,16.23
2023-01-23T04:02:24.726Z,15.57
2023-01-23T04:04:53.921Z,15.15
2023-01-23T04:07:21.742Z,15.40
2023-01-23T04:09:49.953Z,16.15
2023-01-23T04:12:18.041Z,15.27
2023-01-23T04:14:45.849Z,15.57
2023-01-23T04:17:13.695Z,15.45
2023-01-23T04:19:41.578Z,15.13
2023-01-23T04:22:10.877Z,15.95
2023-01-23T04:24:38.694Z,14.90
2023-01-23T04:27:06.452Z,13.60
2023-01-23T04:29:34.396Z,13.82
2023-01-23T04:32:02.375Z,14.48
2023-01-23T04:34:30.234Z,14.63
2023-01-23T04:36:58.159Z,13.82
2023-01-23T04:39:27.377Z,13.85
2023-01-23T04:41:55.103Z,14.80
2023-01-23T04:44:23.001Z,13.20
2023-01-23T04:46:53.051Z,13.73
2023-01-23T04:49:21.793Z,13.13
2023-01-23T04:51:50.221Z,12.77
2023-01-23T04:54:19.284Z,14.35
2023-01-23T04:56:49.092Z,14.10
2023-01-23T04:59:17.756Z,14.00
2023-01-23T05:01:45.907Z,14.02
2023-01-23T05:04:14.149Z,13.68
2023-01-23T05:06:42.060Z,14.30
2023-01-23T05:09:09.889Z,14.75
2023-01-23T05:11:37.619Z,14.35
2023-01-23T05:14:07.047Z,15.45
2023-01-23T05:16:34.932Z,14.27
2023-01-23T05:19:02.762Z,15.02
2023-01-23T05:21:30.556Z,15.07
2023-01-23T05:23:58.317Z,14.20
2023-01-23T05:26:26.034Z,14.15
2023-01-23T05:28:53.929Z,14.57
2023-01-23T05:31:23.109Z,15.25
2023-01-23T05:33:50.907Z,15.57
2023-01-23T05:36:18.830Z,15.77
2023-01-23T05:38:46.800Z,15.90
2023-01-23T05:41:14.606Z,14.18
2023-01-23T05:43:42.408Z,14.15
2023-01-23T05:46:10.199Z,16.33
2023-01-23T05:48:39.341Z,14.48
2023-01-23T05:51:07.342Z,14.75
2023-01-23T05:53:35.337Z,13.95
2023-01-23T05:56:06.957Z,14.55
2023-01-23T05:58:34.810Z,12.82
2023-01-23T06:01:03.580Z,13.85
2023-01-23T06:03:31.801Z,14.00
2023-01-23T06:06:02.290Z,13.45
2023-01-23T06:08:30.465Z,13.05
2023-01-23T06:10:59.738Z,13.45
2023-01-23T06:13:27.964Z,13.45
2023-01-23T06:15:56.683Z,14.20
2023-01-23T06:18:25.434Z,14.07
2023-01-23T06:21:00.933Z,13.75
2023-01-23T06:23:29.403Z,13.13
2023-01-23T06:26:00.639Z,12.65
2023-01-23T06:28:28.396Z,12.88
2023-01-23T06:30:56.636Z,13.93
2023-01-23T06:33:24.473Z,14.60
2023-01-23T06:36:00.181Z,13.15
2023-01-23T06:38:28.412Z,13.95
2023-01-23T06:40:56.413Z,13.00
2023-01-23T06:43:25.195Z,14.25
2023-01-23T06:45:53.003Z,13.68
2023-01-23T06:48:20.919Z,12.80
2023-01-23T06:50:48.947Z,13.75
2023-01-23T06:53:19.410Z,12.27
2023-01-23T06:55:47.689Z,12.63
2023-01-23T06:58:15.478Z,13.30
2023-01-23T07:00:44.594Z,13.13
2023-01-23T07:03:13.205Z,12.57
2023-01-23T07:05:43.295Z,13.45
2023-01-23T07:08:11.571Z,11.75
2023-01-23T07:10:41.325Z,12.35
2023-01-23T07:13:11.170Z,12.45
2023-01-23T07:15:41.010Z,11.73
2023-01-23T07:18:10.085Z,10.90
2023-01-23T07:20:38.493Z,11.90
2023-01-23T07:23:06.403Z,11.15
2023-01-23T07:25:34.335Z,11.48
2023-01-23T07:28:03.552Z,12.23
2023-01-23T07:30:31.316Z,13.02
2023-01-23T07:32:59.311Z,12.55
2023-01-23T07:35:27.592Z,13.20
2023-01-23T07:37:55.397Z,13.18
2023-01-23T07:40:24.606Z,13.40
2023-01-23T07:42:52.418Z,12.68
2023-01-23T07:45:21.589Z,12.70
2023-01-23T07:47:49.364Z,12.52
2023-01-23T07:50:17.241Z,12.90
2023-01-23T07:52:44.993Z,13.57
2023-01-23T07:55:12.968Z,13.20
2023-01-23T07:57:40.876Z,14.82
2023-01-23T08:00:10.734Z,13.13
2023-01-23T08:02:40.051Z,13.02
2023-01-23T08:05:08.920Z,13.73
2023-01-23T08:07:36.674Z,14.15
2023-01-23T08:10:04.778Z,12.77
2023-01-23T08:12:32.676Z,12.75
2023-01-23T08:15:00.460Z,12.93
2023-01-23T08:17:28.375Z,11.93
2023-01-23T08:19:57.587Z,11.10
2023-01-23T08:22:25.373Z,12.07
2023-01-23T08:24:53.176Z,12.20
2023-01-23T08:27:21.078Z,11.30
2023-01-23T08:29:48.932Z,12.13
2023-01-23T08:32:16.866Z,11.60
2023-01-23T08:34:44.595Z,11.90
2023-01-23T08:37:13.761Z,11.73
2023-01-23T08:39:42.173Z,12.27
2023-01-23T08:42:10.142Z,11.95
2023-01-23T08:44:37.866Z,11.13
2023-01-23T08:47:05.712Z,10.57
2023-01-23T08:49:33.459Z,10.70
2023-01-23T08:52:01.311Z,9.48
2023-01-23T08:54:30.520Z,10.70
2023-01-23T08:56:58.789Z,9.48
2023-01-23T08:59:26.682Z,10.80
2023-01-23T09:01:54.483Z,9.90
2023-01-23T09:04:22.256Z,10.20
2023-01-23T09:06:49.966Z,10.20
2023-01-23T09:09:18.328Z,10.00
2023-01-23T09:11:47.556Z,9.88
2023-01-23T09:14:15.267Z,10.80
2023-01-23T09:16:43.117Z,10.52
2023-01-23T09:19:12.720Z,10.45
2023-01-23T09:21:40.850Z,10.38
2023-01-23T09:24:09.333Z,10.30
2023-01-23T09:26:37.635Z,9.85
2023-01-23T09:29:07.000Z,10.10
2023-01-23T09:31:34.963Z,12.02
2023-01-23T09:34:03.891Z,11.80
2023-01-23T09:36:42.453Z,11.13
2023-01-23T09:39:11.233Z,11.68
2023-01-23T09:41:40.217Z,11.45
2023-01-23T09:44:16.730Z,12.20
2023-01-23T09:46:48.914Z,12.32
2023-01-23T09:49:25.839Z,12.30
2023-01-23T09:51:59.892Z,13.23
2023-01-23T09:54:35.642Z,13.20
2023-01-23T09:57:13.206Z,13.10
2023-01-23T09:59:59.835Z,13.40
2023-01-23T10:02:28.048Z,12.10
2023-01-23T10:04:58.089Z,13.27
2023-01-23T10:07:49.427Z,13.07
2023-01-23T10:10:41.777Z,12.83
2023-01-23T10:16:05.633Z,11.95
2023-01-23T10:18:38.350Z,13.18
2023-01-23T10:21:18.161Z,13.98
2023-01-23T10:23:53.238Z,14.63
2023-01-23T10:26:24.352Z,14.32
2023-01-23T10:28:57.681Z,13.87
2023-01-23T10:31:34.750Z,14.25
2023-01-23T10:34:14.294Z,14.38
2023-01-23T10:36:54.942Z,14.98
2023-01-23T10:39:28.799Z,14.75
2023-01-23T10:42:02.487Z,17.67
2023-01-23T10:44:31.121Z,15.60
2023-01-23T10:47:03.777Z,14.43
2023-01-23T10:49:35.403Z,15.07
2023-01-23T10:52:03.651Z,15.00
2023-01-23T10:54:33.185Z,14.35
2023-01-23T10:57:03.080Z,14.82
2023-01-23T10:59:35.530Z,15.10
2023-01-23T11:02:23.011Z,15.07
2023-01-23T11:04:52.862Z,15.05
2023-01-23T11:07:23.515Z,14.48
2023-01-23T11:09:57.431Z,13.82
2023-01-23T11:12:27.743Z,14.93
2023-01-23T11:15:14.748Z,14.55
2023-01-23T11:17:44.636Z,14.57
2023-01-23T11:20:23.380Z,14.90
2023-01-23T11:23:01.949Z,14.93
2023-01-23T11:25:32.013Z,15.20
2023-01-23T11:28:01.764Z,14.40
2023-01-23T11:30:42.484Z,14.50
2023-01-23T11:33:27.499Z,13.65
2023-01-23T11:36:03.476Z,15.30
2023-01-23T11:38:37.731Z,14.63
2023-01-23T11:41:13.057Z,15.90
2023-01-23T11:43:41.670Z,15.80
2023-01-23T11:46:34.476Z,15.25
2023-01-23T11:49:20.567Z,14.50
2023-01-23T11:51:56.797Z,15.70
2023-01-23T11:54:45.239Z,14.70
2023-01-23T11:57:19.797Z,15.00
2023-01-23T12:00:02.225Z,15.27
2023-01-23T12:02:58.632Z,14.18
2023-01-23T12:05:46.532Z,15.43
2023-01-23T12:08:27.228Z,14.18
2023-01-23T12:11:10.728Z,15.20
2023-01-23T12:13:57.023Z,14.68
2023-01-23T12:16:35.764Z,16.13
2023-01-23T12:19:18.296Z,13.43
2023-01-23T12:21:56.160Z,14.35
2023-01-23T12:24:36.258Z,14.80
2023-01-23T12:27:15.941Z,15.57
2023-01-23T12:30:17.202Z,15.20
2023-01-23T12:33:00.217Z,16.17
2023-01-23T12:35:36.742Z,15.15
2023-01-23T12:38:16.868Z,15.63
2023-01-23T12:40:48.705Z,14.95
2023-01-23T12:43:23.069Z,14.07
2023-01-23T12:45:59.903Z,14.75
2023-01-23T12:48:33.400Z,14.90
2023-01-23T12:51:07.564Z,14.20
2023-01-23T12:53:42.168Z,15.55
2023-01-23T12:56:15.385Z,14.63
2023-01-23T12:58:49.358Z,15.05
2023-01-23T13:01:41.929Z,14.52
2023-01-23T13:04:25.069Z,15.25
2023-01-23T13:07:04.359Z,14.35
2023-01-23T13:09:50.911Z,15.02
2023-01-23T13:12:22.804Z,14.57
2023-01-23T13:17:44.232Z,13.73
2023-01-23T13:20:42.290Z,13.35
2023-01-23T13:23:24.767Z,13.70
2023-01-23T13:26:36.950Z,13.52
2023-01-23T13:29:07.568Z,12.00
2023-01-23T13:31:40.598Z,13.93
2023-01-23T13:34:38.055Z,13.43
2023-01-23T13:37:51.350Z,12.82
2023-01-23T13:40:22.848Z,13.10
2023-01-23T13:42:52.316Z,20.25
2023-01-23T13:45:27.476Z,13.23
2023-01-23T14:22:45.952Z,16.98
2023-01-23T14:25:18.656Z,15.65
2023-01-23T14:27:53.681Z,16.23
2023-01-23T14:30:26.785Z,19.85
2023-01-23T14:32:58.259Z,16.55
2023-01-23T14:35:28.206Z,16.17
2023-01-23T14:37:59.133Z,17.30
2023-01-23T14:40:31.791Z,16.98
2023-01-23T14:43:07.855Z,16.27
2023-01-23T14:45:36.736Z,16.73
2023-01-23T14:48:08.576Z,22.23
2023-01-23T14:53:07.598Z,17.90
2023-01-23T14:55:40.717Z,17.40
2023-01-23T14:58:14.845Z,18.23
2023-01-23T15:00:43.432Z,18.02
2023-01-23T15:03:34.333Z,18.92
2023-01-23T15:06:07.121Z,19.45
2023-01-23T15:08:36.048Z,17.50
2023-01-23T15:11:06.505Z,18.35
2023-01-23T15:13:41.715Z,18.17
2023-01-23T15:16:15.572Z,17.23
2023-01-23T15:18:54.293Z,17.10
2023-01-23T15:21:34.680Z,17.80
2023-01-23T15:24:20.372Z,17.08
2023-01-23T15:26:59.219Z,17.48
2023-01-23T15:29:27.132Z,19.77
2023-01-23T15:31:56.237Z,18.73
2023-01-23T15:34:28.350Z,19.67
2023-01-23T15:37:05.371Z,18.02
2023-01-23T15:39:36.087Z,18.30
2023-01-23T15:42:09.503Z,17.55
2023-01-23T15:44:37.337Z,17.25
2023-01-23T15:47:05.275Z,17.17
2023-01-23T15:49:36.150Z,17.88
2023-01-23T15:52:18.259Z,17.08
2023-01-23T15:57:15.222Z,17.35
2023-01-23T15:59:43.285Z,18.50
2023-01-23T16:02:29.667Z,18.67
2023-01-23T16:05:01.065Z,19.17
2023-01-23T16:07:34.815Z,19.23
2023-01-23T16:10:04.268Z,18.73
2023-01-23T16:12:32.843Z,17.33
2023-01-23T16:15:00.719Z,17.38
2023-01-23T16:17:28.540Z,17.88
2023-01-23T16:19:56.325Z,16.83
2023-01-23T16:22:29.214Z,18.85
2023-01-23T16:24:58.728Z,17.70
2023-01-23T16:27:27.916Z,17.80
2023-01-23T16:29:56.902Z,22.65
2023-01-23T16:32:25.257Z,17.63
2023-01-23T16:34:53.106Z,17.63
2023-01-23T16:37:20.971Z,16.48
2023-01-23T16:39:50.149Z,18.13
2023-01-23T16:42:21.740Z,16.10
2023-01-23T16:44:49.650Z,17.10
2023-01-23T16:47:17.838Z,16.35
2023-01-23T16:49:54.189Z,15.95
2023-01-23T16:52:25.701Z,17.10
2023-01-23T16:54:55.941Z,15.30
2023-01-23T16:57:24.661Z,15.35
2023-01-23T16:59:53.200Z,16.15
2023-01-23T17:02:23.802Z,14.70
2023-01-23T17:04:51.788Z,15.82
2023-01-23T17:07:21.188Z,15.45
2023-01-23T17:09:49.350Z,14.95
2023-01-23T17:12:22.983Z,15.52
2023-01-23T17:14:52.744Z,15.43
2023-01-23T17:17:27.011Z,15.50
2023-01-23T17:19:55.178Z,15.32
2023-01-23T17:22:26.311Z,15.57
2023-01-23T17:24:54.693Z,14.60
2023-01-23T17:27:23.937Z,15.43
2023-01-23T17:29:51.892Z,14.55
2023-01-23T17:32:27.901Z,14.98
2023-01-23T17:34:56.320Z,14.60
2023-01-23T17:37:24.898Z,14.50
2023-01-23T17:39:52.912Z,14.18
2023-01-23T17:42:21.999Z,15.45
2023-01-23T17:44:51.209Z,14.52
2023-01-23T17:47:19.529Z,14.90
2023-01-23T17:49:51.152Z,14.82
2023-01-23T17:52:20.415Z,14.32
2023-01-23T17:54:48.630Z,15.10
2023-01-23T17:57:16.466Z,15.27
2023-01-23T17:59:44.332Z,15.18
2023-01-23T18:02:25.129Z,14.90
2023-01-23T18:04:53.030Z,16.13
2023-01-23T18:07:20.781Z,15.18
2023-01-23T18:09:48.566Z,14.35
2023-01-23T18:12:22.158Z,14.82
2023-01-23T18:14:57.432Z,22.27
2023-01-23T18:17:37.672Z,15.25
2023-01-23T18:20:17.551Z,15.30
2023-01-23T18:22:45.896Z,14.68
2023-01-23T18:25:15.698Z,15.55
2023-01-23T18:27:43.958Z,14.43
2023-01-23T18:30:31.223Z,15.60
2023-01-23T18:33:19.812Z,15.10
2023-01-23T18:36:12.436Z,15.27
2023-01-23T18:38:54.723Z,14.88
2023-01-23T18:41:24.899Z,15.40
2023-01-23T18:44:02.443Z,15.30
2023-01-23T18:46:30.655Z,15.15
2023-01-23T18:49:00.794Z,13.82
2023-01-23T18:51:38.428Z,14.98
2023-01-23T18:54:21.179Z,14.82
2023-01-23T18:56:58.920Z,14.70
2023-01-23T18:59:37.348Z,15.77
2023-01-23T19:02:17.588Z,14.45
2023-01-23T19:04:52.655Z,16.27
2023-01-23T19:07:21.199Z,15.20
2023-01-23T19:09:49.568Z,17.50
2023-01-23T19:12:28.200Z,15.35
2023-01-23T19:15:20.320Z,15.60
2023-01-23T19:17:52.429Z,14.73
2023-01-23T19:23:03.207Z,15.13
2023-01-23T19:25:31.575Z,15.82
2023-01-23T19:28:01.722Z,15.13
2023-01-23T19:30:30.398Z,15.95
2023-01-23T19:32:58.196Z,16.27
2023-01-23T19:35:27.639Z,15.63
2023-01-23T19:37:55.745Z,15.10
2023-01-23T19:40:23.575Z,15.43
2023-01-23T19:43:05.696Z,16.60
2023-01-23T19:45:41.152Z,16.02
2023-01-23T19:48:08.990Z,15.38
2023-01-23T19:50:38.822Z,16.85
2023-01-23T19:53:07.169Z,17.45
2023-01-23T19:55:38.136Z,17.13
2023-01-23T19:58:06.567Z,16.23
2023-01-23T20:00:36.170Z,15.93
2023-01-23T20:03:04.912Z,16.58
2023-01-23T20:05:33.155Z,16.70
2023-01-23T20:08:02.274Z,18.30
2023-01-23T20:10:30.156Z,17.58
2023-01-23T20:12:57.858Z,16.05
2023-01-23T20:15:26.911Z,17.98
2023-01-23T20:17:55.479Z,16.85
2023-01-23T20:20:24.069Z,16.98
2023-01-23T20:22:52.087Z,17.70
2023-01-23T20:25:21.532Z,16.73
2023-01-23T20:27:49.618Z,16.63
2023-01-23T20:30:20.017Z,17.48
2023-01-23T20:32:47.974Z,18.23
2023-01-23T20:35:15.822Z,16.23
2023-01-23T20:37:43.590Z,16.35
2023-01-23T20:40:12.917Z,16.55
2023-01-23T20:42:42.083Z,16.40
2023-01-23T20:45:10.831Z,17.25
2023-01-23T20:47:38.792Z,16.92
2023-01-23T20:50:07.465Z,16.90
2023-01-23T20:52:52.891Z,16.00
2023-01-23T20:55:20.927Z,15.43
2023-01-23T20:58:04.135Z,17.10
2023-01-23T21:00:31.848Z,15.52
2023-01-23T21:02:59.764Z,16.33
2023-01-23T21:05:27.632Z,16.17
2023-01-23T21:07:55.462Z,17.40
2023-01-23T21:10:23.351Z,17.23
2023-01-23T21:12:52.451Z,16.55
2023-01-23T21:15:20.600Z,15.55
2023-01-23T21:17:48.548Z,16.02
2023-01-23T21:20:17.049Z,15.10
2023-01-23T21:22:44.797Z,15.68
2023-01-23T21:25:13.119Z,15.73
2023-01-23T21:27:40.884Z,15.48
2023-01-23T21:30:11.672Z,16.98
2023-01-23T21:32:39.912Z,15.90
2023-01-23T21:35:08.126Z,16.90
2023-01-23T21:37:36.399Z,16.08
2023-01-23T21:40:04.778Z,15.50
2023-01-23T21:42:32.508Z,16.20
2023-01-23T21:45:00.303Z,15.25
2023-01-23T21:47:29.470Z,16.13
2023-01-23T21:49:57.190Z,16.40
2023-01-23T21:52:25.070Z,16.05
2023-01-23T21:54:54.311Z,16.95
2023-01-23T21:57:23.120Z,16.38
2023-01-23T22:00:04.728Z,16.67
2023-01-23T22:02:34.013Z,16.48
2023-01-23T22:05:01.853Z,16.13
2023-01-23T22:07:29.639Z,15.02
2023-01-23T22:09:57.454Z,16.05
2023-01-23T22:12:27.278Z,16.63
2023-01-23T22:14:55.831Z,16.35
2023-01-23T22:17:23.732Z,16.35
2023-01-23T22:19:52.965Z,16.65
2023-01-23T22:22:20.792Z,15.00
2023-01-23T22:24:48.615Z,15.38
2023-01-23T22:27:16.415Z,13.77
2023-01-23T22:29:44.599Z,14.30
2023-01-23T22:32:12.406Z,14.50
2023-01-23T22:34:40.208Z,13.82
2023-01-23T22:37:09.344Z,15.10
2023-01-23T22:39:37.078Z,14.20
2023-01-23T22:42:05.329Z,14.27
2023-01-23T22:44:33.144Z,13.48
2023-01-23T22:47:01.073Z,15.13
2023-01-23T22:49:28.921Z,14.48
2023-01-23T22:51:56.644Z,14.70
2023-01-23T22:54:25.792Z,14.90
2023-01-23T22:56:53.495Z,14.75
2023-01-23T22:59:21.275Z,13.88
2023-01-23T23:01:49.336Z,13.93
2023-01-23T23:04:17.040Z,14.05
2023-01-23T23:06:45.062Z,14.30
2023-01-23T23:09:12.940Z,14.00
2023-01-23T23:11:42.301Z,13.75
2023-01-23T23:14:11.804Z,14.27
2023-01-23T23:16:40.817Z,14.70
2023-01-23T23:19:09.707Z,14.15
2023-01-23T23:21:38.642Z,13.52
2023-01-23T23:24:08.991Z,13.65
2023-01-23T23:26:37.194Z,13.73
2023-01-23T23:29:06.476Z,13.98
2023-01-23T23:31:34.611Z,12.52
2023-01-23T23:34:02.635Z,13.25
2023-01-23T23:36:31.116Z,13.32
2023-01-23T23:38:59.010Z,13.23
2023-01-23T23:41:26.972Z,13.05
2023-01-23T23:43:54.719Z,13.73
2023-01-23T23:46:23.964Z,13.20
2023-01-23T23:48:52.119Z,14.43
2023-01-23T23:51:22.851Z,13.95
2023-01-23T23:53:51.267Z,13.00
2023-01-23T23:56:21.971Z,13.93
2023-01-23T23:58:50.121Z,14.07
